sensor_id;sensor_type;location;lat;lon;timestamp;temperature;humidity
22383;DHT22;11359;45.802;13.530;2022-07-29T00:01:21;29.00;42.10
22383;DHT22;11359;45.802;13.530;2022-07-29T00:03:47;29.00;42.10
22383;DHT22;11359;45.802;13.530;2022-07-29T00:06:14;29.00;42.50
22383;DHT22;11359;45.802;13.530;2022-07-29T00:08:40;28.90;42.20
22383;DHT22;11359;45.802;13.530;2022-07-29T00:11:05;28.90;42.20
22383;DHT22;11359;45.802;13.530;2022-07-29T00:13:31;28.90;42.30
22383;DHT22;11359;45.802;13.530;2022-07-29T00:15:57;28.90;42.30
22383;DHT22;11359;45.802;13.530;2022-07-29T00:18:22;28.80;42.30
22383;DHT22;11359;45.802;13.530;2022-07-29T00:20:48;28.80;42.30
22383;DHT22;11359;45.802;13.530;2022-07-29T00:23:14;28.80;42.30
22383;DHT22;11359;45.802;13.530;2022-07-29T00:25:39;28.80;42.40
22383;DHT22;11359;45.802;13.530;2022-07-29T00:28:05;28.80;42.30
22383;DHT22;11359;45.802;13.530;2022-07-29T00:30:31;28.70;42.30
22383;DHT22;11359;45.802;13.530;2022-07-29T00:32:56;28.70;42.20
22383;DHT22;11359;45.802;13.530;2022-07-29T00:35:22;28.70;42.20
22383;DHT22;11359;45.802;13.530;2022-07-29T00:38:06;28.60;42.10
22383;DHT22;11359;45.802;13.530;2022-07-29T00:40:32;28.60;42.20
22383;DHT22;11359;45.802;13.530;2022-07-29T00:42:57;28.50;42.10
22383;DHT22;11359;45.802;13.530;2022-07-29T00:45:23;28.40;42.80
22383;DHT22;11359;45.802;13.530;2022-07-29T00:47:49;28.40;42.30
22383;DHT22;11359;45.802;13.530;2022-07-29T00:50:15;28.40;42.40
22383;DHT22;11359;45.802;13.530;2022-07-29T00:52:42;28.30;42.50
22383;DHT22;11359;45.802;13.530;2022-07-29T00:55:11;28.20;43.30
22383;DHT22;11359;45.802;13.530;2022-07-29T00:57:37;28.20;42.70
22383;DHT22;11359;45.802;13.530;2022-07-29T01:00:04;28.20;42.80
22383;DHT22;11359;45.802;13.530;2022-07-29T01:02:30;28.10;42.80
22383;DHT22;11359;45.802;13.530;2022-07-29T01:04:56;28.10;42.90
22383;DHT22;11359;45.802;13.530;2022-07-29T01:07:24;28.10;43.00
22383;DHT22;11359;45.802;13.530;2022-07-29T01:09:51;28.10;43.00
22383;DHT22;11359;45.802;13.530;2022-07-29T01:12:22;28.10;43.00
22383;DHT22;11359;45.802;13.530;2022-07-29T01:14:49;28.10;42.90
22383;DHT22;11359;45.802;13.530;2022-07-29T01:17:25;28.10;42.90
22383;DHT22;11359;45.802;13.530;2022-07-29T01:30:32;28.00;43.00
22383;DHT22;11359;45.802;13.530;2022-07-29T01:33:06;28.00;43.00
22383;DHT22;11359;45.802;13.530;2022-07-29T01:35:39;28.00;43.00
22383;DHT22;11359;45.802;13.530;2022-07-29T01:38:15;28.00;43.10
22383;DHT22;11359;45.802;13.530;2022-07-29T01:40:52;27.90;43.10
22383;DHT22;11359;45.802;13.530;2022-07-29T01:43:23;28.00;43.20
22383;DHT22;11359;45.802;13.530;2022-07-29T01:46:04;27.90;43.10
22383;DHT22;11359;45.802;13.530;2022-07-29T01:48:50;28.00;43.20
22383;DHT22;11359;45.802;13.530;2022-07-29T01:51:54;27.90;43.10
22383;DHT22;11359;45.802;13.530;2022-07-29T01:54:25;28.00;43.10
22383;DHT22;11359;45.802;13.530;2022-07-29T01:56:54;27.90;43.00
22383;DHT22;11359;45.802;13.530;2022-07-29T01:59:21;27.90;43.10
22383;DHT22;11359;45.802;13.530;2022-07-29T02:01:47;27.90;43.10
22383;DHT22;11359;45.802;13.530;2022-07-29T02:04:16;27.90;43.10
22383;DHT22;11359;45.802;13.530;2022-07-29T02:06:44;27.90;43.10
22383;DHT22;11359;45.802;13.530;2022-07-29T02:09:12;27.80;43.00
22383;DHT22;11359;45.802;13.530;2022-07-29T02:11:40;27.80;43.10
22383;DHT22;11359;45.802;13.530;2022-07-29T02:14:08;27.80;43.00
22383;DHT22;11359;45.802;13.530;2022-07-29T02:16:36;27.80;43.00
22383;DHT22;11359;45.802;13.530;2022-07-29T02:19:04;27.80;43.10
22383;DHT22;11359;45.802;13.530;2022-07-29T02:21:32;27.80;43.10
22383;DHT22;11359;45.802;13.530;2022-07-29T02:24:01;27.80;43.10
22383;DHT22;11359;45.802;13.530;2022-07-29T02:26:28;27.80;43.10
22383;DHT22;11359;45.802;13.530;2022-07-29T02:28:56;27.80;43.10
22383;DHT22;11359;45.802;13.530;2022-07-29T02:31:25;27.80;43.10
22383;DHT22;11359;45.802;13.530;2022-07-29T02:33:52;27.80;43.00
22383;DHT22;11359;45.802;13.530;2022-07-29T02:36:23;27.80;43.10
22383;DHT22;11359;45.802;13.530;2022-07-29T02:38:50;27.80;43.10
22383;DHT22;11359;45.802;13.530;2022-07-29T02:41:23;27.80;43.10
22383;DHT22;11359;45.802;13.530;2022-07-29T02:43:55;27.80;43.20
22383;DHT22;11359;45.802;13.530;2022-07-29T02:46:30;27.80;43.30
22383;DHT22;11359;45.802;13.530;2022-07-29T02:49:10;27.80;44.10
22383;DHT22;11359;45.802;13.530;2022-07-29T02:52:26;27.80;43.40
22383;DHT22;11359;45.802;13.530;2022-07-29T02:54:56;27.80;43.40
22383;DHT22;11359;45.802;13.530;2022-07-29T02:57:33;27.80;43.30
22383;DHT22;11359;45.802;13.530;2022-07-29T03:00:05;27.80;43.30
22383;DHT22;11359;45.802;13.530;2022-07-29T03:02:35;27.70;43.10
22383;DHT22;11359;45.802;13.530;2022-07-29T03:05:03;27.70;43.10
22383;DHT22;11359;45.802;13.530;2022-07-29T03:07:29;27.70;43.10
22383;DHT22;11359;45.802;13.530;2022-07-29T03:09:56;27.60;43.10
22383;DHT22;11359;45.802;13.530;2022-07-29T03:12:23;27.50;43.10
22383;DHT22;11359;45.802;13.530;2022-07-29T03:14:49;27.50;43.20
22383;DHT22;11359;45.802;13.530;2022-07-29T03:17:16;27.50;43.40
22383;DHT22;11359;45.802;13.530;2022-07-29T03:19:42;27.50;43.40
22383;DHT22;11359;45.802;13.530;2022-07-29T03:22:08;27.40;43.40
22383;DHT22;11359;45.802;13.530;2022-07-29T03:24:35;27.40;43.50
22383;DHT22;11359;45.802;13.530;2022-07-29T03:27:03;27.40;43.60
22383;DHT22;11359;45.802;13.530;2022-07-29T03:29:29;27.40;43.70
22383;DHT22;11359;45.802;13.530;2022-07-29T03:31:55;27.40;43.70
22383;DHT22;11359;45.802;13.530;2022-07-29T03:34:21;27.40;43.60
22383;DHT22;11359;45.802;13.530;2022-07-29T03:36:47;27.40;43.60
22383;DHT22;11359;45.802;13.530;2022-07-29T03:39:20;27.40;43.60
22383;DHT22;11359;45.802;13.530;2022-07-29T03:41:47;27.30;43.60
22383;DHT22;11359;45.802;13.530;2022-07-29T03:44:14;27.30;43.60
22383;DHT22;11359;45.802;13.530;2022-07-29T03:46:42;27.30;44.30
22383;DHT22;11359;45.802;13.530;2022-07-29T03:49:09;27.30;43.70
22383;DHT22;11359;45.802;13.530;2022-07-29T03:51:36;27.30;43.80
22383;DHT22;11359;45.802;13.530;2022-07-29T03:54:03;27.30;43.80
22383;DHT22;11359;45.802;13.530;2022-07-29T03:56:32;27.30;43.80
22383;DHT22;11359;45.802;13.530;2022-07-29T03:59:01;27.30;43.80
22383;DHT22;11359;45.802;13.530;2022-07-29T04:01:28;27.30;43.90
22383;DHT22;11359;45.802;13.530;2022-07-29T04:03:54;27.30;43.80
22383;DHT22;11359;45.802;13.530;2022-07-29T04:06:20;27.30;43.90
22383;DHT22;11359;45.802;13.530;2022-07-29T04:08:46;27.30;43.90
22383;DHT22;11359;45.802;13.530;2022-07-29T04:11:12;27.30;43.90
22383;DHT22;11359;45.802;13.530;2022-07-29T04:13:38;27.30;43.90
22383;DHT22;11359;45.802;13.530;2022-07-29T04:16:04;27.40;44.00
22383;DHT22;11359;45.802;13.530;2022-07-29T04:18:29;27.40;43.90
22383;DHT22;11359;45.802;13.530;2022-07-29T04:20:55;27.40;43.80
22383;DHT22;11359;45.802;13.530;2022-07-29T04:23:21;27.40;43.70
22383;DHT22;11359;45.802;13.530;2022-07-29T04:25:47;27.40;44.40
22383;DHT22;11359;45.802;13.530;2022-07-29T04:28:12;27.40;43.80
22383;DHT22;11359;45.802;13.530;2022-07-29T04:30:39;27.30;43.70
22383;DHT22;11359;45.802;13.530;2022-07-29T04:33:06;27.30;43.80
22383;DHT22;11359;45.802;13.530;2022-07-29T04:35:36;27.30;43.80
22383;DHT22;11359;45.802;13.530;2022-07-29T04:38:04;27.30;43.90
22383;DHT22;11359;45.802;13.530;2022-07-29T04:40:30;27.30;43.90
22383;DHT22;11359;45.802;13.530;2022-07-29T04:42:56;27.30;43.90
22383;DHT22;11359;45.802;13.530;2022-07-29T04:45:22;27.30;43.90
22383;DHT22;11359;45.802;13.530;2022-07-29T04:47:48;27.20;43.90
22383;DHT22;11359;45.802;13.530;2022-07-29T04:50:13;27.20;43.90
22383;DHT22;11359;45.802;13.530;2022-07-29T04:52:39;27.30;43.90
22383;DHT22;11359;45.802;13.530;2022-07-29T04:55:06;27.20;43.90
22383;DHT22;11359;45.802;13.530;2022-07-29T04:57:32;27.20;43.90
22383;DHT22;11359;45.802;13.530;2022-07-29T04:59:58;27.20;44.00
22383;DHT22;11359;45.802;13.530;2022-07-29T05:02:24;27.20;44.00
22383;DHT22;11359;45.802;13.530;2022-07-29T05:04:50;27.20;44.00
22383;DHT22;11359;45.802;13.530;2022-07-29T05:07:15;27.20;44.00
22383;DHT22;11359;45.802;13.530;2022-07-29T05:09:41;27.20;44.10
22383;DHT22;11359;45.802;13.530;2022-07-29T05:12:07;27.20;44.10
22383;DHT22;11359;45.802;13.530;2022-07-29T05:14:33;27.20;44.00
22383;DHT22;11359;45.802;13.530;2022-07-29T05:16:58;27.20;44.00
22383;DHT22;11359;45.802;13.530;2022-07-29T05:19:24;27.20;44.10
22383;DHT22;11359;45.802;13.530;2022-07-29T05:21:50;27.20;44.10
22383;DHT22;11359;45.802;13.530;2022-07-29T05:24:16;27.20;44.10
22383;DHT22;11359;45.802;13.530;2022-07-29T05:26:42;27.20;44.10
22383;DHT22;11359;45.802;13.530;2022-07-29T05:29:08;27.20;44.20
22383;DHT22;11359;45.802;13.530;2022-07-29T05:31:33;27.20;44.20
22383;DHT22;11359;45.802;13.530;2022-07-29T05:33:59;27.20;44.20
22383;DHT22;11359;45.802;13.530;2022-07-29T05:36:25;27.20;44.20
22383;DHT22;11359;45.802;13.530;2022-07-29T05:38:51;27.20;44.30
22383;DHT22;11359;45.802;13.530;2022-07-29T05:41:18;27.20;44.30
22383;DHT22;11359;45.802;13.530;2022-07-29T05:43:44;27.20;44.30
22383;DHT22;11359;45.802;13.530;2022-07-29T05:46:09;27.20;44.30
22383;DHT22;11359;45.802;13.530;2022-07-29T05:48:35;27.20;44.30
22383;DHT22;11359;45.802;13.530;2022-07-29T05:51:01;27.20;44.40
22383;DHT22;11359;45.802;13.530;2022-07-29T05:53:27;27.20;44.40
22383;DHT22;11359;45.802;13.530;2022-07-29T05:55:53;27.20;44.50
22383;DHT22;11359;45.802;13.530;2022-07-29T05:58:19;27.20;44.50
22383;DHT22;11359;45.802;13.530;2022-07-29T06:00:45;27.20;44.50
22383;DHT22;11359;45.802;13.530;2022-07-29T06:03:10;27.20;44.60
22383;DHT22;11359;45.802;13.530;2022-07-29T06:05:36;27.30;44.70
22383;DHT22;11359;45.802;13.530;2022-07-29T06:08:02;27.30;44.60
22383;DHT22;11359;45.802;13.530;2022-07-29T06:10:31;27.30;44.60
22383;DHT22;11359;45.802;13.530;2022-07-29T06:12:56;27.30;44.60
22383;DHT22;11359;45.802;13.530;2022-07-29T06:15:22;27.30;44.50
22383;DHT22;11359;45.802;13.530;2022-07-29T06:17:48;27.40;44.60
22383;DHT22;11359;45.802;13.530;2022-07-29T06:20:13;27.40;44.50
22383;DHT22;11359;45.802;13.530;2022-07-29T06:22:39;27.40;44.50
22383;DHT22;11359;45.802;13.530;2022-07-29T06:25:05;27.50;44.60
22383;DHT22;11359;45.802;13.530;2022-07-29T06:27:31;27.50;44.60
22383;DHT22;11359;45.802;13.530;2022-07-29T06:29:57;27.50;44.50
22383;DHT22;11359;45.802;13.530;2022-07-29T06:32:23;27.60;44.50
22383;DHT22;11359;45.802;13.530;2022-07-29T06:34:48;27.60;44.50
22383;DHT22;11359;45.802;13.530;2022-07-29T06:37:14;27.60;44.50
22383;DHT22;11359;45.802;13.530;2022-07-29T06:39:40;27.60;44.40
22383;DHT22;11359;45.802;13.530;2022-07-29T06:42:06;27.60;44.30
22383;DHT22;11359;45.802;13.530;2022-07-29T06:44:33;27.70;44.30
22383;DHT22;11359;45.802;13.530;2022-07-29T06:47:00;27.70;44.20
22383;DHT22;11359;45.802;13.530;2022-07-29T06:49:25;27.70;44.20
22383;DHT22;11359;45.802;13.530;2022-07-29T06:51:53;27.80;44.20
22383;DHT22;11359;45.802;13.530;2022-07-29T06:54:19;27.80;44.10
22383;DHT22;11359;45.802;13.530;2022-07-29T06:56:45;27.80;44.10
22383;DHT22;11359;45.802;13.530;2022-07-29T06:59:11;27.80;44.10
22383;DHT22;11359;45.802;13.530;2022-07-29T07:01:39;27.90;44.10
22383;DHT22;11359;45.802;13.530;2022-07-29T07:04:06;27.90;44.10
22383;DHT22;11359;45.802;13.530;2022-07-29T07:06:31;27.90;44.10
22383;DHT22;11359;45.802;13.530;2022-07-29T07:08:57;28.00;44.00
22383;DHT22;11359;45.802;13.530;2022-07-29T07:11:23;28.00;43.90
22383;DHT22;11359;45.802;13.530;2022-07-29T07:13:49;28.00;43.90
22383;DHT22;11359;45.802;13.530;2022-07-29T07:16:14;28.10;44.00
22383;DHT22;11359;45.802;13.530;2022-07-29T07:18:40;28.10;44.00
22383;DHT22;11359;45.802;13.530;2022-07-29T07:21:06;28.10;43.90
22383;DHT22;11359;45.802;13.530;2022-07-29T07:23:31;28.10;43.80
22383;DHT22;11359;45.802;13.530;2022-07-29T07:25:57;28.20;43.80
22383;DHT22;11359;45.802;13.530;2022-07-29T07:28:23;28.20;43.70
22383;DHT22;11359;45.802;13.530;2022-07-29T07:30:48;28.20;43.60
22383;DHT22;11359;45.802;13.530;2022-07-29T07:33:14;28.30;43.60
22383;DHT22;11359;45.802;13.530;2022-07-29T07:35:41;28.30;43.60
22383;DHT22;11359;45.802;13.530;2022-07-29T07:38:07;28.30;43.60
22383;DHT22;11359;45.802;13.530;2022-07-29T07:40:32;28.40;43.60
22383;DHT22;11359;45.802;13.530;2022-07-29T07:42:58;28.40;43.60
22383;DHT22;11359;45.802;13.530;2022-07-29T07:45:24;28.40;43.60
22383;DHT22;11359;45.802;13.530;2022-07-29T07:47:50;28.50;43.60
22383;DHT22;11359;45.802;13.530;2022-07-29T07:50:16;28.50;43.50
22383;DHT22;11359;45.802;13.530;2022-07-29T07:52:54;28.50;43.50
22383;DHT22;11359;45.802;13.530;2022-07-29T07:55:23;28.60;43.60
22383;DHT22;11359;45.802;13.530;2022-07-29T07:57:49;28.60;44.30
22383;DHT22;11359;45.802;13.530;2022-07-29T08:00:16;28.60;43.60
22383;DHT22;11359;45.802;13.530;2022-07-29T08:02:42;28.60;43.60
22383;DHT22;11359;45.802;13.530;2022-07-29T08:05:08;28.70;43.60
22383;DHT22;11359;45.802;13.530;2022-07-29T08:07:34;28.70;43.60
22383;DHT22;11359;45.802;13.530;2022-07-29T08:10:00;28.80;43.60
22383;DHT22;11359;45.802;13.530;2022-07-29T08:12:25;28.80;43.60
22383;DHT22;11359;45.802;13.530;2022-07-29T08:14:51;28.80;43.60
22383;DHT22;11359;45.802;13.530;2022-07-29T08:17:17;28.80;43.50
22383;DHT22;11359;45.802;13.530;2022-07-29T08:19:43;28.80;43.50
22383;DHT22;11359;45.802;13.530;2022-07-29T08:22:08;28.90;43.50
22383;DHT22;11359;45.802;13.530;2022-07-29T08:24:35;28.90;43.50
22383;DHT22;11359;45.802;13.530;2022-07-29T08:27:12;28.90;43.40
22383;DHT22;11359;45.802;13.530;2022-07-29T08:29:39;29.00;43.40
22383;DHT22;11359;45.802;13.530;2022-07-29T08:32:05;29.00;43.40
22383;DHT22;11359;45.802;13.530;2022-07-29T08:34:31;29.00;43.40
22383;DHT22;11359;45.802;13.530;2022-07-29T08:36:57;29.10;43.40
22383;DHT22;11359;45.802;13.530;2022-07-29T08:39:23;29.10;43.30
22383;DHT22;11359;45.802;13.530;2022-07-29T08:41:49;29.10;43.30
22383;DHT22;11359;45.802;13.530;2022-07-29T08:44:17;29.20;43.30
22383;DHT22;11359;45.802;13.530;2022-07-29T08:46:43;29.20;43.30
22383;DHT22;11359;45.802;13.530;2022-07-29T08:49:09;29.20;43.20
22383;DHT22;11359;45.802;13.530;2022-07-29T08:51:36;29.30;43.20
22383;DHT22;11359;45.802;13.530;2022-07-29T08:54:02;29.30;43.80
22383;DHT22;11359;45.802;13.530;2022-07-29T08:56:29;29.30;43.10
22383;DHT22;11359;45.802;13.530;2022-07-29T08:58:58;29.30;42.90
22383;DHT22;11359;45.802;13.530;2022-07-29T09:01:25;29.40;43.00
22383;DHT22;11359;45.802;13.530;2022-07-29T09:03:55;29.40;42.80
22383;DHT22;11359;45.802;13.530;2022-07-29T09:06:21;29.40;42.80
22383;DHT22;11359;45.802;13.530;2022-07-29T09:08:47;29.40;42.60
22383;DHT22;11359;45.802;13.530;2022-07-29T09:11:14;29.50;42.70
22383;DHT22;11359;45.802;13.530;2022-07-29T09:13:40;29.50;42.60
22383;DHT22;11359;45.802;13.530;2022-07-29T09:16:06;29.50;42.50
22383;DHT22;11359;45.802;13.530;2022-07-29T09:18:40;29.50;42.40
22383;DHT22;11359;45.802;13.530;2022-07-29T09:21:09;29.50;42.30
22383;DHT22;11359;45.802;13.530;2022-07-29T09:26:31;29.60;42.10
22383;DHT22;11359;45.802;13.530;2022-07-29T09:28:57;29.60;42.10
22383;DHT22;11359;45.802;13.530;2022-07-29T09:31:34;29.60;42.00
22383;DHT22;11359;45.802;13.530;2022-07-29T09:34:01;29.70;42.00
22383;DHT22;11359;45.802;13.530;2022-07-29T09:36:27;29.70;42.00
22383;DHT22;11359;45.802;13.530;2022-07-29T09:39:02;29.80;41.90
22383;DHT22;11359;45.802;13.530;2022-07-29T09:41:29;29.80;41.90
22383;DHT22;11359;45.802;13.530;2022-07-29T09:43:56;29.80;41.80
22383;DHT22;11359;45.802;13.530;2022-07-29T09:46:23;29.80;41.80
22383;DHT22;11359;45.802;13.530;2022-07-29T09:49:09;29.90;41.80
22383;DHT22;11359;45.802;13.530;2022-07-29T09:51:36;29.80;41.80
22383;DHT22;11359;45.802;13.530;2022-07-29T09:54:20;29.90;41.80
22383;DHT22;11359;45.802;13.530;2022-07-29T09:56:46;29.90;41.90
22383;DHT22;11359;45.802;13.530;2022-07-29T09:59:13;29.90;41.90
22383;DHT22;11359;45.802;13.530;2022-07-29T10:01:40;29.90;42.00
22383;DHT22;11359;45.802;13.530;2022-07-29T10:04:06;30.00;42.00
22383;DHT22;11359;45.802;13.530;2022-07-29T10:06:34;30.00;42.00
22383;DHT22;11359;45.802;13.530;2022-07-29T10:09:10;30.00;42.00
22383;DHT22;11359;45.802;13.530;2022-07-29T10:11:36;30.10;42.10
22383;DHT22;11359;45.802;13.530;2022-07-29T10:14:03;30.10;42.10
22383;DHT22;11359;45.802;13.530;2022-07-29T10:16:29;30.10;42.10
22383;DHT22;11359;45.802;13.530;2022-07-29T10:19:00;30.10;42.20
22383;DHT22;11359;45.802;13.530;2022-07-29T10:21:27;30.10;42.30
22383;DHT22;11359;45.802;13.530;2022-07-29T10:23:53;30.20;42.30
22383;DHT22;11359;45.802;13.530;2022-07-29T10:26:19;30.20;42.30
22383;DHT22;11359;45.802;13.530;2022-07-29T10:28:45;30.20;42.50
22383;DHT22;11359;45.802;13.530;2022-07-29T10:31:35;30.20;42.50
22383;DHT22;11359;45.802;13.530;2022-07-29T10:34:31;30.30;42.60
22383;DHT22;11359;45.802;13.530;2022-07-29T10:43:24;30.30;42.70
22383;DHT22;11359;45.802;13.530;2022-07-29T10:45:56;30.40;42.80
22383;DHT22;11359;45.802;13.530;2022-07-29T10:48:22;30.40;42.90
22383;DHT22;11359;45.802;13.530;2022-07-29T10:50:56;30.40;42.80
22383;DHT22;11359;45.802;13.530;2022-07-29T10:53:23;30.40;42.80
22383;DHT22;11359;45.802;13.530;2022-07-29T10:55:51;30.40;42.80
22383;DHT22;11359;45.802;13.530;2022-07-29T10:58:26;30.50;42.90
22383;DHT22;11359;45.802;13.530;2022-07-29T11:00:53;30.60;42.90
22383;DHT22;11359;45.802;13.530;2022-07-29T11:03:48;30.60;42.90
22383;DHT22;11359;45.802;13.530;2022-07-29T11:06:15;30.60;42.90
22383;DHT22;11359;45.802;13.530;2022-07-29T11:08:41;30.60;42.90
22383;DHT22;11359;45.802;13.530;2022-07-29T11:13:51;30.60;42.80
22383;DHT22;11359;45.802;13.530;2022-07-29T11:16:19;30.70;42.80
22383;DHT22;11359;45.802;13.530;2022-07-29T11:21:40;30.80;42.80
22383;DHT22;11359;45.802;13.530;2022-07-29T11:24:16;30.70;42.70
22383;DHT22;11359;45.802;13.530;2022-07-29T11:26:42;30.80;42.80
22383;DHT22;11359;45.802;13.530;2022-07-29T11:29:20;30.80;42.80
22383;DHT22;11359;45.802;13.530;2022-07-29T11:31:51;30.80;42.70
22383;DHT22;11359;45.802;13.530;2022-07-29T11:47:56;30.90;42.60
22383;DHT22;11359;45.802;13.530;2022-07-29T11:50:41;31.00;42.70
22383;DHT22;11359;45.802;13.530;2022-07-29T11:53:11;31.00;42.80
22383;DHT22;11359;45.802;13.530;2022-07-29T11:55:39;31.00;42.70
22383;DHT22;11359;45.802;13.530;2022-07-29T11:58:05;31.00;42.60
22383;DHT22;11359;45.802;13.530;2022-07-29T12:00:36;31.00;42.60
22383;DHT22;11359;45.802;13.530;2022-07-29T12:03:05;31.10;42.50
22383;DHT22;11359;45.802;13.530;2022-07-29T12:05:42;31.10;42.30
22383;DHT22;11359;45.802;13.530;2022-07-29T12:08:16;31.20;42.30
22383;DHT22;11359;45.802;13.530;2022-07-29T12:10:45;31.20;41.90
22383;DHT22;11359;45.802;13.530;2022-07-29T12:13:13;31.20;41.40
22383;DHT22;11359;45.802;13.530;2022-07-29T12:15:40;31.20;41.30
22383;DHT22;11359;45.802;13.530;2022-07-29T12:18:14;31.30;41.90
22383;DHT22;11359;45.802;13.530;2022-07-29T12:20:40;31.30;41.20
22383;DHT22;11359;45.802;13.530;2022-07-29T12:23:09;31.40;41.20
22383;DHT22;11359;45.802;13.530;2022-07-29T12:25:38;31.40;40.90
22383;DHT22;11359;45.802;13.530;2022-07-29T12:28:07;31.40;40.60
22383;DHT22;11359;45.802;13.530;2022-07-29T12:30:43;31.50;40.50
22383;DHT22;11359;45.802;13.530;2022-07-29T12:33:17;31.50;40.30
22383;DHT22;11359;45.802;13.530;2022-07-29T12:35:49;31.50;40.10
22383;DHT22;11359;45.802;13.530;2022-07-29T12:38:16;31.60;40.00
22383;DHT22;11359;45.802;13.530;2022-07-29T12:40:42;31.60;40.00
22383;DHT22;11359;45.802;13.530;2022-07-29T12:43:09;31.70;39.90
22383;DHT22;11359;45.802;13.530;2022-07-29T12:45:40;31.70;39.70
22383;DHT22;11359;45.802;13.530;2022-07-29T12:48:07;31.80;39.40
22383;DHT22;11359;45.802;13.530;2022-07-29T12:51:17;31.80;39.30
22383;DHT22;11359;45.802;13.530;2022-07-29T12:53:23;31.80;39.20
22383;DHT22;11359;45.802;13.530;2022-07-29T12:55:51;31.90;39.70
22383;DHT22;11359;45.802;13.530;2022-07-29T12:58:37;32.00;38.90
22383;DHT22;11359;45.802;13.530;2022-07-29T13:01:09;32.00;39.00
22383;DHT22;11359;45.802;13.530;2022-07-29T13:06:44;32.10;38.90
22383;DHT22;11359;45.802;13.530;2022-07-29T13:11:44;32.40;39.00
22383;DHT22;11359;45.802;13.530;2022-07-29T13:14:13;32.50;39.70
22383;DHT22;11359;45.802;13.530;2022-07-29T13:22:17;33.00;39.10
22383;DHT22;11359;45.802;13.530;2022-07-29T13:27:19;33.50;39.60
22383;DHT22;11359;45.802;13.530;2022-07-29T13:29:45;33.80;39.60
22383;DHT22;11359;45.802;13.530;2022-07-29T13:32:12;34.10;39.10
22383;DHT22;11359;45.802;13.530;2022-07-29T13:34:38;34.50;38.30
22383;DHT22;11359;45.802;13.530;2022-07-29T13:37:04;34.80;38.20
22383;DHT22;11359;45.802;13.530;2022-07-29T13:39:30;35.10;38.20
22383;DHT22;11359;45.802;13.530;2022-07-29T13:41:56;35.30;37.70
22383;DHT22;11359;45.802;13.530;2022-07-29T13:44:21;35.60;37.10
22383;DHT22;11359;45.802;13.530;2022-07-29T13:46:47;35.80;36.70
22383;DHT22;11359;45.802;13.530;2022-07-29T13:49:13;36.00;36.70
22383;DHT22;11359;45.802;13.530;2022-07-29T13:51:38;36.20;36.70
22383;DHT22;11359;45.802;13.530;2022-07-29T13:54:05;36.40;36.70
22383;DHT22;11359;45.802;13.530;2022-07-29T13:56:30;36.60;36.60
22383;DHT22;11359;45.802;13.530;2022-07-29T13:58:56;36.80;36.50
22383;DHT22;11359;45.802;13.530;2022-07-29T14:01:23;36.90;36.30
22383;DHT22;11359;45.802;13.530;2022-07-29T14:03:49;37.10;36.30
22383;DHT22;11359;45.802;13.530;2022-07-29T14:06:14;37.30;36.20
22383;DHT22;11359;45.802;13.530;2022-07-29T14:08:41;37.40;36.00
22383;DHT22;11359;45.802;13.530;2022-07-29T14:11:07;37.60;35.70
22383;DHT22;11359;45.802;13.530;2022-07-29T14:13:32;37.70;35.50
22383;DHT22;11359;45.802;13.530;2022-07-29T14:15:58;37.90;35.50
22383;DHT22;11359;45.802;13.530;2022-07-29T14:18:24;38.00;35.50
22383;DHT22;11359;45.802;13.530;2022-07-29T14:20:50;38.10;35.40
22383;DHT22;11359;45.802;13.530;2022-07-29T14:23:16;38.20;35.00
22383;DHT22;11359;45.802;13.530;2022-07-29T14:25:42;38.30;34.70
22383;DHT22;11359;45.802;13.530;2022-07-29T14:28:08;38.40;34.30
22383;DHT22;11359;45.802;13.530;2022-07-29T14:30:34;38.50;34.10
22383;DHT22;11359;45.802;13.530;2022-07-29T14:33:00;38.70;34.10
22383;DHT22;11359;45.802;13.530;2022-07-29T14:35:25;38.80;33.80
22383;DHT22;11359;45.802;13.530;2022-07-29T14:37:51;38.80;33.40
22383;DHT22;11359;45.802;13.530;2022-07-29T14:40:17;38.90;33.00
22383;DHT22;11359;45.802;13.530;2022-07-29T14:42:42;39.00;32.90
22383;DHT22;11359;45.802;13.530;2022-07-29T14:45:09;39.10;32.80
22383;DHT22;11359;45.802;13.530;2022-07-29T14:47:37;39.20;32.70
22383;DHT22;11359;45.802;13.530;2022-07-29T14:50:04;39.30;32.30
22383;DHT22;11359;45.802;13.530;2022-07-29T14:52:30;39.40;31.70
22383;DHT22;11359;45.802;13.530;2022-07-29T14:54:56;39.50;31.70
22383;DHT22;11359;45.802;13.530;2022-07-29T14:57:21;39.50;31.50
22383;DHT22;11359;45.802;13.530;2022-07-29T14:59:47;39.60;31.50
22383;DHT22;11359;45.802;13.530;2022-07-29T15:02:13;39.60;31.40
22383;DHT22;11359;45.802;13.530;2022-07-29T15:04:39;39.60;31.10
22383;DHT22;11359;45.802;13.530;2022-07-29T15:07:04;39.70;30.50
22383;DHT22;11359;45.802;13.530;2022-07-29T15:09:30;39.70;30.40
22383;DHT22;11359;45.802;13.530;2022-07-29T15:11:56;39.70;30.50
22383;DHT22;11359;45.802;13.530;2022-07-29T15:14:21;39.70;30.70
22383;DHT22;11359;45.802;13.530;2022-07-29T15:16:47;39.80;30.90
22383;DHT22;11359;45.802;13.530;2022-07-29T15:19:13;39.80;30.80
22383;DHT22;11359;45.802;13.530;2022-07-29T15:21:39;39.70;30.70
22383;DHT22;11359;45.802;13.530;2022-07-29T15:24:05;39.70;30.70
22383;DHT22;11359;45.802;13.530;2022-07-29T15:26:32;39.70;30.70
22383;DHT22;11359;45.802;13.530;2022-07-29T15:28:59;39.60;30.70
22383;DHT22;11359;45.802;13.530;2022-07-29T15:31:25;39.50;30.70
22383;DHT22;11359;45.802;13.530;2022-07-29T15:33:51;39.50;30.70
22383;DHT22;11359;45.802;13.530;2022-07-29T15:36:16;39.40;30.60
22383;DHT22;11359;45.802;13.530;2022-07-29T15:38:42;39.30;30.50
22383;DHT22;11359;45.802;13.530;2022-07-29T15:41:12;39.10;30.40
22383;DHT22;11359;45.802;13.530;2022-07-29T15:43:43;39.00;30.50
22383;DHT22;11359;45.802;13.530;2022-07-29T15:46:12;38.80;30.70
22383;DHT22;11359;45.802;13.530;2022-07-29T15:48:56;38.80;31.20
22383;DHT22;11359;45.802;13.530;2022-07-29T15:51:22;38.70;31.50
22383;DHT22;11359;45.802;13.530;2022-07-29T15:53:48;38.70;31.80
22383;DHT22;11359;45.802;13.530;2022-07-29T15:56:13;38.70;32.00
22383;DHT22;11359;45.802;13.530;2022-07-29T15:58:39;38.80;32.10
22383;DHT22;11359;45.802;13.530;2022-07-29T16:01:05;38.80;32.20
22383;DHT22;11359;45.802;13.530;2022-07-29T16:03:30;38.90;32.10
22383;DHT22;11359;45.802;13.530;2022-07-29T16:05:57;38.80;31.70
22383;DHT22;11359;45.802;13.530;2022-07-29T16:08:23;38.80;31.40
22383;DHT22;11359;45.802;13.530;2022-07-29T16:10:49;38.70;31.30
22383;DHT22;11359;45.802;13.530;2022-07-29T16:13:14;38.50;31.20